createdAt,value
2022-07-28T00:03:10.504Z,80.47
2022-07-28T00:06:22.979Z,80.15
2022-07-28T00:09:34.617Z,79.13
2022-07-28T00:12:46.742Z,80.32
2022-07-28T00:15:58.878Z,78.68
2022-07-28T00:19:10.800Z,80.62
2022-07-28T00:22:22.625Z,80.52
2022-07-28T00:25:34.569Z,80.81
2022-07-28T00:28:46.217Z,80.63
2022-07-28T00:31:58.059Z,80.14
2022-07-28T00:35:10.826Z,82.06
2022-07-28T00:38:24.064Z,81.89
2022-07-28T00:41:42.885Z,81.21
2022-07-28T00:44:55.191Z,82.90
2022-07-28T00:48:07.010Z,82.62
2022-07-28T00:51:20.800Z,82.35
2022-07-28T00:54:32.777Z,81.95
2022-07-28T00:57:47.373Z,82.03
2022-07-28T01:00:59.503Z,80.96
2022-07-28T01:04:13.303Z,80.80
2022-07-28T01:07:34.563Z,78.26
2022-07-28T01:10:54.534Z,78.94
2022-07-28T01:14:13.113Z,79.89
2022-07-28T01:17:36.254Z,78.74
2022-07-28T01:20:53.229Z,79.59
2022-07-28T01:24:21.732Z,80.90
2022-07-28T01:27:49.786Z,81.52
2022-07-28T01:31:32.929Z,81.28
2022-07-28T01:34:53.228Z,82.69
2022-07-28T01:38:09.877Z,79.24
2022-07-28T01:41:29.582Z,78.98
2022-07-28T01:44:46.372Z,79.45
2022-07-28T01:48:02.975Z,78.48
2022-07-28T01:51:17.088Z,79.60
2022-07-28T01:54:30.664Z,80.24
2022-07-28T01:57:44.049Z,80.24
2022-07-28T02:00:58.942Z,82.60
2022-07-28T02:04:13.187Z,81.19
2022-07-28T02:07:26.731Z,80.75
2022-07-28T02:10:40.681Z,81.36
2022-07-28T02:13:57.171Z,82.38
2022-07-28T02:17:15.171Z,83.05
2022-07-28T02:20:28.528Z,81.49
2022-07-28T02:23:42.298Z,83.72
2022-07-28T02:27:00.773Z,81.82
2022-07-28T02:30:19.116Z,81.27
2022-07-28T02:34:00.313Z,81.69
2022-07-28T02:36:54.964Z,83.66
2022-07-28T02:40:10.276Z,81.45
2022-07-28T02:43:28.066Z,82.22
2022-07-28T02:46:47.108Z,82.56
2022-07-28T02:50:01.843Z,83.48
2022-07-28T02:53:15.831Z,83.63
2022-07-28T02:56:31.362Z,83.32
2022-07-28T02:59:44.331Z,83.39
2022-07-28T03:02:56.385Z,83.83
2022-07-28T03:06:08.650Z,83.05
2022-07-28T03:09:20.491Z,83.40
2022-07-28T03:12:33.377Z,83.58
2022-07-28T03:15:45.565Z,83.62
2022-07-28T03:18:57.306Z,84.01
2022-07-28T03:22:13.612Z,84.03
2022-07-28T03:25:30.997Z,84.10
2022-07-28T03:28:44.989Z,86.34
2022-07-28T03:32:01.453Z,88.26
2022-07-28T03:35:15.194Z,89.26
2022-07-28T03:38:33.136Z,87.74
2022-07-28T03:41:49.012Z,88.58
2022-07-28T03:45:02.320Z,88.84
2022-07-28T03:48:14.261Z,88.52
2022-07-28T03:51:25.964Z,88.59
2022-07-28T03:54:39.041Z,87.88
2022-07-28T03:57:50.784Z,88.63
2022-07-28T04:01:03.706Z,88.18
2022-07-28T04:04:15.988Z,88.54
2022-07-28T04:07:28.170Z,86.88
2022-07-28T04:10:40.179Z,84.43
2022-07-28T04:13:52.035Z,84.40
2022-07-28T04:17:04.359Z,86.77
2022-07-28T04:20:17.935Z,86.59
2022-07-28T04:23:30.868Z,85.10
2022-07-28T04:26:44.066Z,83.35
2022-07-28T04:29:56.083Z,83.63
2022-07-28T04:33:07.943Z,85.81
2022-07-28T04:36:19.841Z,85.71
2022-07-28T04:39:31.636Z,84.66
2022-07-28T04:42:44.607Z,84.96
2022-07-28T04:45:56.710Z,83.68
2022-07-28T04:49:08.905Z,83.13
2022-07-28T04:52:22.145Z,83.89
2022-07-28T04:55:35.170Z,84.19
2022-07-28T04:58:48.869Z,85.88
2022-07-28T05:02:01.551Z,85.01
2022-07-28T05:05:15.004Z,83.15
2022-07-28T05:08:27.031Z,82.89
2022-07-28T05:11:38.779Z,82.39
2022-07-28T05:14:50.554Z,84.99
2022-07-28T05:18:05.364Z,83.14
2022-07-28T05:21:17.188Z,85.15
2022-07-28T05:24:31.269Z,82.21
2022-07-28T05:27:42.924Z,82.89
2022-07-28T05:30:54.677Z,82.03
2022-07-28T05:34:08.204Z,82.62
2022-07-28T05:37:20.097Z,81.39
2022-07-28T05:40:32.072Z,82.52
2022-07-28T05:43:43.923Z,85.44
2022-07-28T05:46:55.584Z,83.20
2022-07-28T05:50:11.867Z,84.17
2022-07-28T05:53:23.761Z,85.51
2022-07-28T05:56:35.597Z,82.39
2022-07-28T05:59:47.428Z,82.57
2022-07-28T06:03:02.157Z,81.83
2022-07-28T06:06:16.117Z,84.46
2022-07-28T06:09:28.048Z,83.00
2022-07-28T06:12:45.125Z,83.32
2022-07-28T06:15:55.494Z,80.58
2022-07-28T06:19:07.146Z,80.29
2022-07-28T06:22:19.545Z,80.96
2022-07-28T06:25:33.089Z,80.02
2022-07-28T06:28:44.820Z,79.14
2022-07-28T06:31:56.543Z,79.52
2022-07-28T06:44:12.344Z,77.00
2022-07-28T06:50:27.464Z,73.20
2022-07-28T06:53:41.065Z,73.26
2022-07-28T07:24:57.720Z,61.25
2022-07-28T07:35:30.573Z,59.31
2022-07-28T08:35:32.422Z,51.97
2022-07-28T08:38:29.253Z,52.38
2022-07-28T08:41:49.060Z,51.46
2022-07-28T08:45:06.359Z,51.50
2022-07-28T08:48:20.422Z,54.52
2022-07-28T08:54:36.900Z,50.52
2022-07-28T08:57:49.930Z,49.62
2022-07-28T09:01:02.163Z,49.14
2022-07-28T09:07:54.430Z,49.45
2022-07-28T09:11:06.370Z,47.96
2022-07-28T09:14:18.150Z,49.52
2022-07-28T09:17:32.654Z,47.29
2022-07-28T09:20:45.885Z,49.72
2022-07-28T09:23:58.439Z,48.22
2022-07-28T09:27:12.525Z,47.53
2022-07-28T09:30:36.639Z,48.11
2022-07-28T09:34:02.366Z,49.08
2022-07-28T09:37:27.042Z,46.75
2022-07-28T09:40:40.183Z,46.25
2022-07-28T09:43:55.912Z,47.16
2022-07-28T09:47:16.414Z,47.64
2022-07-28T09:50:31.011Z,46.05
2022-07-28T09:56:44.448Z,47.35
2022-07-28T09:59:56.389Z,47.46
2022-07-28T10:22:06.612Z,47.66
2022-07-28T10:25:19.498Z,48.06
2022-07-28T11:16:27.755Z,45.21
2022-07-28T11:23:50.731Z,46.98
2022-07-28T11:27:04.272Z,50.57
2022-07-28T11:30:18.872Z,46.71
2022-07-28T11:33:31.483Z,46.31
2022-07-28T11:37:08.074Z,49.70
2022-07-28T11:40:43.483Z,47.68
2022-07-28T11:43:55.831Z,47.58
2022-07-28T11:47:25.185Z,47.35
2022-07-28T11:50:37.756Z,47.73
2022-07-28T11:53:52.834Z,47.87
2022-07-28T11:57:08.536Z,47.85
2022-07-28T12:00:27.592Z,49.48
2022-07-28T12:03:50.286Z,46.68
2022-07-28T12:06:58.291Z,48.36
2022-07-28T12:10:54.368Z,45.40
2022-07-28T12:14:06.234Z,45.47
2022-07-28T12:17:18.441Z,48.53
2022-07-28T12:20:34.584Z,46.12
2022-07-28T12:23:49.596Z,49.62
2022-07-28T12:27:05.559Z,46.87
2022-07-28T12:30:27.128Z,45.28
2022-07-28T12:33:41.475Z,49.60
2022-07-28T12:36:54.599Z,48.34
2022-07-28T12:40:08.646Z,47.75
2022-07-28T12:43:26.361Z,49.08
2022-07-28T12:46:38.931Z,49.04
2022-07-28T12:49:56.336Z,48.26
2022-07-28T12:53:14.373Z,47.60
2022-07-28T12:56:26.603Z,46.41
2022-07-28T12:59:42.972Z,49.01
2022-07-28T13:02:56.802Z,47.14
2022-07-28T13:06:17.490Z,47.91
2022-07-28T13:09:35.125Z,50.68
2022-07-28T13:12:46.681Z,49.89
2022-07-28T13:16:19.764Z,49.07
2022-07-28T13:19:31.671Z,49.00
2022-07-28T13:22:45.890Z,47.19
2022-07-28T13:25:57.753Z,49.33
2022-07-28T13:29:12.852Z,49.47
2022-07-28T13:32:25.099Z,49.78
2022-07-28T13:35:37.099Z,47.79
2022-07-28T13:38:48.783Z,48.23
2022-07-28T13:42:00.499Z,48.73
2022-07-28T13:45:17.208Z,49.58
2022-07-28T13:48:30.360Z,47.69
2022-07-28T13:51:42.191Z,50.15
2022-07-28T13:54:54.060Z,47.50
2022-07-28T13:58:08.898Z,48.57
2022-07-28T14:01:19.895Z,51.42
2022-07-28T14:04:33.707Z,49.38
2022-07-28T14:07:48.260Z,49.29
2022-07-28T14:11:04.076Z,47.18
2022-07-28T14:14:17.033Z,49.27
2022-07-28T14:17:43.330Z,49.44
2022-07-28T14:20:47.754Z,49.03
2022-07-28T14:23:59.771Z,48.19
2022-07-28T14:27:11.866Z,47.39
2022-07-28T14:30:26.369Z,47.71
2022-07-28T14:33:43.119Z,47.86
2022-07-28T14:36:53.347Z,47.99
2022-07-28T14:40:05.452Z,48.49
2022-07-28T14:43:17.143Z,47.86
2022-07-28T14:46:29.592Z,47.53
2022-07-28T14:49:57.401Z,48.90
2022-07-28T14:52:57.501Z,49.50
2022-07-28T14:56:09.963Z,50.04
2022-07-28T14:59:23.555Z,51.21
2022-07-28T15:02:35.615Z,48.48
2022-07-28T15:05:49.145Z,48.71
2022-07-28T15:09:01.874Z,50.05
2022-07-28T15:12:15.588Z,51.49
2022-07-28T15:15:30.805Z,50.40
2022-07-28T15:18:46.114Z,50.99
2022-07-28T15:21:59.342Z,51.60
2022-07-28T15:25:21.184Z,51.32
2022-07-28T15:28:33.443Z,52.61
2022-07-28T15:31:47.226Z,51.19
2022-07-28T15:35:01.519Z,50.06
2022-07-28T15:38:14.357Z,51.35
2022-07-28T15:41:26.951Z,54.76
2022-07-28T15:44:39.292Z,51.81
2022-07-28T15:47:51.436Z,51.22
2022-07-28T15:51:03.325Z,51.44
2022-07-28T15:54:16.027Z,53.32
2022-07-28T15:57:37.810Z,52.34
2022-07-28T16:00:45.568Z,53.40
2022-07-28T16:03:58.377Z,54.89
2022-07-28T16:07:25.567Z,54.62
2022-07-28T16:10:38.555Z,54.36
2022-07-28T16:13:51.100Z,54.20
2022-07-28T16:17:03.148Z,54.54
2022-07-28T16:20:18.798Z,54.02
2022-07-28T16:23:31.072Z,53.91
2022-07-28T16:26:43.744Z,53.44
2022-07-28T16:29:55.887Z,53.98
2022-07-28T16:33:09.574Z,55.07
2022-07-28T16:36:21.974Z,54.85
2022-07-28T16:39:33.947Z,55.54
2022-07-28T16:42:46.139Z,55.71
2022-07-28T16:45:58.126Z,54.73
2022-07-28T16:49:10.196Z,54.29
2022-07-28T16:52:22.900Z,54.41
2022-07-28T16:55:35.931Z,54.91
2022-07-28T16:58:48.172Z,54.63
2022-07-28T17:01:59.990Z,54.56
2022-07-28T17:05:14.456Z,55.42
2022-07-28T17:08:26.339Z,55.73
2022-07-28T17:11:38.477Z,56.16
2022-07-28T17:14:50.578Z,56.14
2022-07-28T17:18:02.901Z,56.05
2022-07-28T17:21:15.302Z,55.90
2022-07-28T17:24:28.143Z,56.41
2022-07-28T17:27:44.640Z,55.81
2022-07-28T17:30:55.581Z,56.27
2022-07-28T17:34:07.774Z,56.69
2022-07-28T17:37:19.952Z,57.27
2022-07-28T17:40:32.351Z,58.16
2022-07-28T17:43:45.754Z,57.85
2022-07-28T17:46:58.432Z,58.92
2022-07-28T17:50:13.575Z,58.49
2022-07-28T17:53:25.229Z,59.09
2022-07-28T17:56:38.139Z,59.50
2022-07-28T17:59:53.275Z,59.71
2022-07-28T18:03:11.274Z,60.25
2022-07-28T18:06:20.962Z,60.39
2022-07-28T18:09:33.288Z,60.66
2022-07-28T18:12:45.829Z,61.08
2022-07-28T18:15:58.101Z,61.79
2022-07-28T18:19:10.814Z,62.13
2022-07-28T18:22:22.814Z,62.45
2022-07-28T18:25:35.479Z,64.06
2022-07-28T18:28:47.312Z,63.41
2022-07-28T18:32:00.354Z,63.15
2022-07-28T18:35:14.281Z,63.10
2022-07-28T18:38:26.507Z,63.75
2022-07-28T18:41:46.157Z,63.92
2022-07-28T18:44:53.278Z,65.22
2022-07-28T18:48:05.884Z,65.15
2022-07-28T18:51:17.989Z,65.76
2022-07-28T18:54:30.948Z,65.41
2022-07-28T18:57:43.660Z,66.08
2022-07-28T19:00:56.046Z,65.92
2022-07-28T19:04:08.475Z,66.71
2022-07-28T19:07:21.838Z,69.06
2022-07-28T19:10:34.516Z,67.86
2022-07-28T19:13:46.948Z,67.77
2022-07-28T19:16:59.196Z,67.83
2022-07-28T19:20:14.587Z,67.62
2022-07-28T19:23:26.676Z,67.36
2022-07-28T19:26:39.073Z,69.11
2022-07-28T19:29:54.054Z,72.11
2022-07-28T19:33:06.999Z,72.01
2022-07-28T19:36:19.641Z,72.51
2022-07-28T19:39:34.301Z,74.33
2022-07-28T19:42:48.587Z,74.60
2022-07-28T19:46:01.630Z,75.59
2022-07-28T19:49:17.188Z,76.30
2022-07-28T19:52:29.670Z,76.63
2022-07-28T19:55:50.723Z,77.00
2022-07-28T19:58:58.196Z,77.33
2022-07-28T20:02:10.262Z,77.07
2022-07-28T20:05:22.949Z,77.44
2022-07-28T20:08:36.040Z,77.91
2022-07-28T20:11:48.340Z,80.56
2022-07-28T20:15:00.312Z,79.80
2022-07-28T20:18:12.948Z,79.84
2022-07-28T20:21:26.287Z,80.47
2022-07-28T20:24:38.631Z,81.91
2022-07-28T20:27:50.948Z,80.31
2022-07-28T20:31:03.205Z,82.29
2022-07-28T20:34:15.368Z,84.63
2022-07-28T20:37:36.444Z,83.64
2022-07-28T20:40:41.905Z,82.80
2022-07-28T20:44:18.526Z,83.28
2022-07-28T20:47:07.734Z,83.31
2022-07-28T20:50:22.724Z,82.11
2022-07-28T20:53:34.893Z,83.82
2022-07-28T20:56:47.560Z,82.88
2022-07-28T20:59:59.513Z,84.90
2022-07-28T21:03:13.969Z,85.55
2022-07-28T21:06:26.420Z,85.40
2022-07-28T21:09:38.456Z,85.78
2022-07-28T21:12:50.685Z,87.29
2022-07-28T21:16:03.346Z,88.52
2022-07-28T21:19:15.401Z,88.85
2022-07-28T21:22:27.393Z,87.29
2022-07-28T21:25:39.901Z,88.64
2022-07-28T21:29:08.491Z,89.85
2022-07-28T21:32:20.497Z,89.67
2022-07-28T21:35:32.913Z,90.51
2022-07-28T21:38:44.855Z,91.34
2022-07-28T21:41:58.085Z,91.69
2022-07-28T21:45:11.414Z,91.04
2022-07-28T21:48:25.189Z,91.30
2022-07-28T21:51:37.536Z,92.24
2022-07-28T21:54:49.480Z,93.65
2022-07-28T21:58:03.105Z,93.83
2022-07-28T22:01:24.037Z,94.55
2022-07-28T22:04:37.407Z,96.46
2022-07-28T22:07:49.399Z,97.08
2022-07-28T22:11:01.769Z,98.06
2022-07-28T22:14:17.453Z,98.28
2022-07-28T22:17:29.764Z,97.81
2022-07-28T22:20:42.590Z,97.98
2022-07-28T22:23:54.400Z,97.47
2022-07-28T22:27:10.929Z,98.20
2022-07-28T22:30:24.387Z,97.69
2022-07-28T22:33:36.653Z,97.15
2022-07-28T22:36:49.243Z,95.27
2022-07-28T22:40:00.919Z,95.71
2022-07-28T22:43:13.414Z,95.57
2022-07-28T22:46:25.347Z,95.02
2022-07-28T22:49:38.518Z,94.93
2022-07-28T22:52:50.972Z,93.91
2022-07-28T22:59:37.214Z,93.29
2022-07-28T23:02:46.381Z,93.02
2022-07-28T23:06:03.859Z,91.82
2022-07-28T23:09:16.320Z,92.23
2022-07-28T23:12:28.254Z,92.89
2022-07-28T23:15:41.475Z,92.67
2022-07-28T23:18:53.682Z,93.85
2022-07-28T23:22:06.278Z,93.27
2022-07-28T23:25:18.680Z,93.06
2022-07-28T23:28:30.569Z,94.23
2022-07-28T23:31:42.633Z,94.07
2022-07-28T23:34:54.387Z,94.58
2022-07-28T23:38:06.170Z,95.03
2022-07-28T23:41:20.004Z,94.04
2022-07-28T23:44:31.913Z,96.25
2022-07-28T23:47:43.804Z,94.42
2022-07-28T23:50:55.446Z,94.00
2022-07-28T23:54:07.195Z,94.69
2022-07-28T23:57:21.237Z,94.46
